Aérodrome :
LOGIN :

S'inscrire | Disclaimer

   EN    FR    IT 

 










Légende :    VFR   VFR Marginal   IFR   IFR Intensif   IFR Très Intensif
Visi : 
Plafond : 
>= 8 km
>= 3000ft
5 à 8 km
1000 à 3000 ft
1500m à 5 km
500 à 1000 ft
800 à 1500m
200 à 500 ft
< 800m
< 200 ft
Symboles :   Orages  Brouillard  Fortes neiges  Fortes précipitations  Vent > 20 kt
SIGMETs :   Divers  Orages  Givrage  Turbulence  Onde Orograph.  Cendres Volcan.







- Altitude de l'aérodrome : 330 ft
- Code IATA : LVA
- Voir les cartes d'approche


LFOV - Laval-Entrammes

DERNIER METAR :
  • 190430Z AUTO 26009KT 1000 BCFG VV/// 07/07 Q1023

METARs EXPIRÉS :
  • 190400Z AUTO 26009KT 0650 0600 FG VV/// 06/06 Q1023
  • 190330Z AUTO 26007KT 230V300 0650 0600 FG VV/// 06/06 Q1023
  • 190300Z AUTO 24005KT 200V280 0650 0600 FG VV/// 06/06 Q1023
  • 190230Z AUTO 25005KT 210V290 1000 BR VV/// 06/06 Q1024
  • 190200Z AUTO VRB03KT 1400 BR VV/// 06/06 Q1024

TAF N/A
Pas de NOTAMs connus pour ce terrain.



MET'MAP, la Météo Aéronautique d'un coup d'oeil ! - Copyright ORBIFLY Décembre 2007 - Disclaimer

ORBIFLY MET'MAP TEAM :

Programmation & Développement : Alexandra Zaïnal
Conception & Développement : Baudouin d'Aumeries
Co-Programmation & Développement : Marc-Olivier Méhu
Soutien technique & logistique : Manuel Goepfert

Contact : metmap@orbifly.com




SOURCES & CREDITS :

   NOAA